Terminal Aerodrome Forecast
Issued by NWS Sioux Falls, SD

Home | Current Version | Previous Version | Text Only | Print | Product List | Glossary Off
Versions: 1 2 3 4 5 6 7 8 9 10 11 12

000
FTUS43 KFSD 271720
TAFHON
TAF
KHON 271720Z 2718/2818 36012KT P6SM BKN025
     FM272000 36009KT P6SM SCT070
     FM280100 03008KT P6SM FEW200
     FM280300 06006KT P6SM FEW250
     FM281300 02007KT P6SM SCT200
     FM281600 03011KT P6SM SCT200=

USA.gov is the U.S. government's official web portal to all federal, state and local government web resources and services.